Chem Antares — V7GU2 — position and weather

sailwx.info

Track history (hours):
 
Tides and Currents Weather Stations Pressure Air Temp Water Temp Dewpoint Dewpoint Depression Visibility Wind Speed Wind Dir Waves Ship Positions

Chem Antares

Last reported at 2018-Jun-01 19:53 UTC. Time now 2018-Jul-21 13:47 UTC.
Position N 41°12' W 072°23'.
Warning: this ship's position is 49 days out of date.

Length 144 m; draft 8.1 m.

Type: Tanker. MMSI: 538002174.

Date/timePositionNaut miles runAvg speedWind from/ knotsBaromVisibWave heightAir tempDewpointWater temp
2018-Jun-01 19:53N 41°12' W 072°23'3 8.7
2018-Jun-01 19:29N 41°12' W 072°27'  
2018-May-29 19:55N 40°45' W 073°58'2 5.4
2018-May-29 19:30N 40°43' W 073°58'2 4.7
2018-May-29 19:00N 40°42' W 074°01'1 2.9
2018-May-29 18:30N 40°41' W 074°02'  
2018-May-27 11:53N 39°44' W 073°60'3 6.7
2018-May-27 11:29N 39°42' W 074°01'334 7.0
2018-May-25 11:35N 34°31' W 076°32'1 7.3
2018-May-25 11:30N 34°31' W 076°32'3 7.2
2018-May-25 11:01N 34°34' W 076°34'3 6.9
2018-May-25 10:31N 34°38' W 076°34'1 1.4
2018-May-25 09:58N 34°37' W 076°33'0 0.0
2018-May-25 00:03N 34°37' W 076°33'0 0.0
2018-May-24 23:54N 34°37' W 076°33'0 0.0
2018-May-24 23:30N 34°37' W 076°33'0 0.0
2018-May-24 23:00N 34°37' W 076°33'0 0.0
2018-May-24 22:30N 34°37' W 076°33'0 0.0
2018-May-24 22:00N 34°37' W 076°33'0 0.0
2018-May-24 21:30N 34°37' W 076°33'0 0.0
2018-May-24 21:00N 34°37' W 076°33'0 0.0
2018-May-24 20:30N 34°37' W 076°33'0 0.0
2018-May-24 20:00N 34°37' W 076°33'0 0.0
2018-May-24 19:30N 34°37' W 076°33'0 0.0
2018-May-24 19:00N 34°37' W 076°33'0 0.0
2018-May-24 18:30N 34°37' W 076°33'0 0.0
2018-May-24 18:00N 34°37' W 076°33'0 0.0
2018-May-24 17:30N 34°37' W 076°33'0 0.0
2018-May-24 17:00N 34°37' W 076°33'0 0.0
2018-May-24 16:30N 34°37' W 076°33'0 0.0
2018-May-24 16:00N 34°37' W 076°33'0 0.0
2018-May-24 15:30N 34°37' W 076°33'0 0.0
2018-May-24 15:00N 34°37' W 076°33'0 0.0
2018-May-24 14:30N 34°37' W 076°33'0 0.0
2018-May-24 14:00N 34°37' W 076°33'0 0.0
2018-May-24 13:21N 34°37' W 076°33'0 0.0
2018-May-24 08:57N 34°37' W 076°33'0 0.0
2018-May-24 08:30N 34°37' W 076°33'0 0.0
2018-May-24 07:57N 34°37' W 076°33'0 0.0
2018-May-24 07:30N 34°37' W 076°33'0 0.0
2018-May-24 07:00N 34°37' W 076°33'0 0.0
2018-May-24 06:30N 34°37' W 076°33'0 0.0
2018-May-24 05:57N 34°37' W 076°33'0 0.0
2018-May-24 05:30N 34°37' W 076°33'0 0.0
2018-May-24 04:51N 34°37' W 076°33'0 0.0
2018-May-24 03:42N 34°37' W 076°33'0 0.0
2018-May-24 03:30N 34°37' W 076°33'0 0.0
2018-May-24 02:54N 34°37' W 076°33'0 0.0
2018-May-24 02:30N 34°37' W 076°33'0 0.0
2018-May-24 02:00N 34°37' W 076°33'0 0.0
2018-May-24 01:30N 34°37' W 076°33'0 0.0
2018-May-24 00:57N 34°37' W 076°33'0 0.0
2018-May-24 00:30N 34°37' W 076°33'0 0.0
2018-May-24 00:00N 34°37' W 076°33'0 0.0
2018-May-23 23:30N 34°37' W 076°33'0 0.0
2018-May-23 23:00N 34°37' W 076°33'0 0.0
2018-May-23 22:27N 34°37' W 076°33'0 0.0
2018-May-23 22:00N 34°37' W 076°33'0 0.0
2018-May-23 21:30N 34°37' W 076°33'0 0.0
2018-May-23 21:00N 34°37' W 076°33'0 0.0
2018-May-23 20:30N 34°37' W 076°33'0 0.0
2018-May-23 20:00N 34°37' W 076°33'0 0.0
2018-May-23 19:27N 34°37' W 076°33'0 0.0
2018-May-23 19:00N 34°37' W 076°33'0 0.0
2018-May-23 18:30N 34°37' W 076°33'0 0.0
2018-May-23 18:00N 34°37' W 076°33'0 0.0
2018-May-23 17:30N 34°37' W 076°33'0 0.0
2018-May-23 17:00N 34°37' W 076°33'0 0.0
2018-May-23 16:30N 34°37' W 076°33'0 0.0
2018-May-23 16:00N 34°37' W 076°33'0 0.0
2018-May-23 15:30N 34°37' W 076°33'0 0.0
2018-May-23 15:00N 34°37' W 076°33'0 0.0
2018-May-23 14:30N 34°37' W 076°33'0 0.0
2018-May-23 14:00N 34°37' W 076°33'0 0.0
2018-May-23 13:30N 34°37' W 076°33'0 0.0
2018-May-23 13:00N 34°37' W 076°33'0 0.0
2018-May-23 12:30N 34°37' W 076°33'0 0.0
2018-May-23 12:00N 34°37' W 076°33'0 0.0
2018-May-23 11:30N 34°37' W 076°33'0 0.0
2018-May-22 23:46N 34°37' W 076°33'0 0.0
2018-May-22 23:28N 34°37' W 076°33'0 0.0
2018-May-22 22:58N 34°37' W 076°33'0 0.0
2018-May-22 22:28N 34°37' W 076°33'0 0.0
2018-May-22 21:58N 34°37' W 076°33'  
Track history (hours):
 
Tides and Currents Weather Stations Pressure Air Temp Water Temp Dewpoint Dewpoint Depression Visibility Wind Speed Wind Dir Waves Ship Positions

Chem Antares

Last reported at 2018-Jun-01 19:53 UTC. Time now 2018-Jul-21 13:47 UTC.
Position N 41°12' W 072°23'.
Warning: this ship's position is 49 days out of date.

Length 144 m; draft 8.1 m.

Type: Tanker. MMSI: 538002174.

Date/timePositionNaut miles runAvg speedWind from/ knotsBaromVisibWave heightAir tempDewpointWater temp
2018-Jun-01 19:53N 41°12' W 072°23'3 8.7
2018-Jun-01 19:29N 41°12' W 072°27'  
2018-May-29 19:55N 40°45' W 073°58'2 5.4
2018-May-29 19:30N 40°43' W 073°58'2 4.7
2018-May-29 19:00N 40°42' W 074°01'1 2.9
2018-May-29 18:30N 40°41' W 074°02'  
2018-May-27 11:53N 39°44' W 073°60'3 6.7
2018-May-27 11:29N 39°42' W 074°01'334 7.0
2018-May-25 11:35N 34°31' W 076°32'1 7.3
2018-May-25 11:30N 34°31' W 076°32'3 7.2
2018-May-25 11:01N 34°34' W 076°34'3 6.9
2018-May-25 10:31N 34°38' W 076°34'1 1.4
2018-May-25 09:58N 34°37' W 076°33'0 0.0
2018-May-25 00:03N 34°37' W 076°33'0 0.0
2018-May-24 23:54N 34°37' W 076°33'0 0.0
2018-May-24 23:30N 34°37' W 076°33'0 0.0
2018-May-24 23:00N 34°37' W 076°33'0 0.0
2018-May-24 22:30N 34°37' W 076°33'0 0.0
2018-May-24 22:00N 34°37' W 076°33'0 0.0
2018-May-24 21:30N 34°37' W 076°33'0 0.0
2018-May-24 21:00N 34°37' W 076°33'0 0.0
2018-May-24 20:30N 34°37' W 076°33'0 0.0
2018-May-24 20:00N 34°37' W 076°33'0 0.0
2018-May-24 19:30N 34°37' W 076°33'0 0.0
2018-May-24 19:00N 34°37' W 076°33'0 0.0
2018-May-24 18:30N 34°37' W 076°33'0 0.0
2018-May-24 18:00N 34°37' W 076°33'0 0.0
2018-May-24 17:30N 34°37' W 076°33'0 0.0
2018-May-24 17:00N 34°37' W 076°33'0 0.0
2018-May-24 16:30N 34°37' W 076°33'0 0.0
2018-May-24 16:00N 34°37' W 076°33'0 0.0
2018-May-24 15:30N 34°37' W 076°33'0 0.0
2018-May-24 15:00N 34°37' W 076°33'0 0.0
2018-May-24 14:30N 34°37' W 076°33'0 0.0
2018-May-24 14:00N 34°37' W 076°33'0 0.0
2018-May-24 13:21N 34°37' W 076°33'0 0.0
2018-May-24 08:57N 34°37' W 076°33'0 0.0
2018-May-24 08:30N 34°37' W 076°33'0 0.0
2018-May-24 07:57N 34°37' W 076°33'0 0.0
2018-May-24 07:30N 34°37' W 076°33'0 0.0
2018-May-24 07:00N 34°37' W 076°33'0 0.0
2018-May-24 06:30N 34°37' W 076°33'0 0.0
2018-May-24 05:57N 34°37' W 076°33'0 0.0
2018-May-24 05:30N 34°37' W 076°33'0 0.0
2018-May-24 04:51N 34°37' W 076°33'0 0.0
2018-May-24 03:42N 34°37' W 076°33'0 0.0
2018-May-24 03:30N 34°37' W 076°33'0 0.0
2018-May-24 02:54N 34°37' W 076°33'0 0.0
2018-May-24 02:30N 34°37' W 076°33'0 0.0
2018-May-24 02:00N 34°37' W 076°33'0 0.0
2018-May-24 01:30N 34°37' W 076°33'0 0.0
2018-May-24 00:57N 34°37' W 076°33'0 0.0
2018-May-24 00:30N 34°37' W 076°33'0 0.0
2018-May-24 00:00N 34°37' W 076°33'0 0.0
2018-May-23 23:30N 34°37' W 076°33'0 0.0
2018-May-23 23:00N 34°37' W 076°33'0 0.0
2018-May-23 22:27N 34°37' W 076°33'0 0.0
2018-May-23 22:00N 34°37' W 076°33'0 0.0
2018-May-23 21:30N 34°37' W 076°33'0 0.0
2018-May-23 21:00N 34°37' W 076°33'0 0.0
2018-May-23 20:30N 34°37' W 076°33'0 0.0
2018-May-23 20:00N 34°37' W 076°33'0 0.0
2018-May-23 19:27N 34°37' W 076°33'0 0.0
2018-May-23 19:00N 34°37' W 076°33'0 0.0
2018-May-23 18:30N 34°37' W 076°33'0 0.0
2018-May-23 18:00N 34°37' W 076°33'0 0.0
2018-May-23 17:30N 34°37' W 076°33'0 0.0
2018-May-23 17:00N 34°37' W 076°33'0 0.0
2018-May-23 16:30N 34°37' W 076°33'0 0.0
2018-May-23 16:00N 34°37' W 076°33'0 0.0
2018-May-23 15:30N 34°37' W 076°33'0 0.0
2018-May-23 15:00N 34°37' W 076°33'0 0.0
2018-May-23 14:30N 34°37' W 076°33'0 0.0
2018-May-23 14:00N 34°37' W 076°33'0 0.0
2018-May-23 13:30N 34°37' W 076°33'0 0.0
2018-May-23 13:00N 34°37' W 076°33'0 0.0
2018-May-23 12:30N 34°37' W 076°33'0 0.0
2018-May-23 12:00N 34°37' W 076°33'0 0.0
2018-May-23 11:30N 34°37' W 076°33'0 0.0
2018-May-22 23:46N 34°37' W 076°33'0 0.0
2018-May-22 23:28N 34°37' W 076°33'0 0.0
2018-May-22 22:58N 34°37' W 076°33'0 0.0
2018-May-22 22:28N 34°37' W 076°33'0 0.0
2018-May-22 21:58N 34°37' W 076°33'  

Dump ship's entire track history